Norfolk, NE

5:22 PM CST on February 25, 2017 (GMT -0600)
West Central - Norfolk | | Change Station

Elev 1640 ft 42.04 °N, 97.45 °W | Updated 2 seconds ago

Clear
Clear
30.1 °F
Feels Like 26 °F
N
4.1
Wind Variable Wind from South
Gusts 6.9 mph

Today
High -- | Low -- °F
--% Chance of Precip.
Yesterday
High -- | Low -- °F
Precip. -- in
Pressure 29.97 in
Visibility 10.0 miles
Clouds Clear
Windchill 26 °F
Dew Point 24 °F
Humidity 79%
Rainfall 0.04 in
Snow Depth Not available.
7:10 AM 6:15 PM
Waning Crescent, 1% visible
METAR KOFK 252256Z AUTO 18012G20KT 10SM CLR M01/M06 A2990 RMK AO2 SLP148 T10111061
Pressure 29.97 in
Visibility 10.0 miles
Clouds Clear
Windchill 26 °F
Dew Point 24 °F
Humidity 79%
Rainfall 0.04 in
Snow Depth Not available.
7:10 AM 6:15 PM
Waning Crescent, 1% visible
METAR KOFK 252256Z AUTO 18012G20KT 10SM CLR M01/M06 A2990 RMK AO2 SLP148 T10111061

Get Your Daily Forecast Email!

Thanks for signing up!

Be on the lookout for a verification email in your inbox.

You'll start receiving the daily forecast at 8 AM.

×

10-Day Weather Forecast

Almanac

Astronomy

Feb. 25, 2017 Rise Set
Actual Time
Civil Twilight
Nautical Twilight
Astronomical Twilight
Moon
Length of Visible Light
Length of Day
Tomorrow will be .
, % of the Moon is Illuminated

Today's Extremes

State Highs State Lows

Community

WunderPhotos

Upload Photos

1,962,540 photos uploaded!

WunderBlog® & News

Nearby

Air Quality

  Air Quality AQ Index Pollutant
Not available.

Snow Depth

Station Depth Elevation

Earthquake Activity

City Distance Mag. Time & Date
Minimum magnitude displayed is 2.5.

Coastal Water Temperatures

Place Temperature

Stations

Nearby Weather Stations

Station Location Temp. Windchill Dew Point Humidity Wind Precip. Elev Updated Type
                   

Watches & Warnings

There are currently no watches in effect.